Barkley Regional Airport
KPAH : now visible

Airfield :











YOU CAN JOIN US ON...

 
LOGIN :

Register | Disclaimer

   EN    FR    IT 

 









Legend :    VFR   Marginal VFR   IFR   Intensive IFR   Very Intensive IFR
Visi :
Ceiling :
>= 8 km
>= 3000ft
5 to 8 km
1000 to 3000 ft
1500m to 5 km
500 to 1000 ft
800 to 1500m
200 to 500 ft
< 800m
< 200 ft
Symbols :   Thunderstorms  Fog  Heavy snow  Heavy precipitations  Wind > 20 kt






- Airport Elevation : 410 ft
- IATA code : PAH


KPAH - Barkley Regional

CURRENT METAR :
  • 190353Z 00000KT 10SM CLR 18/16 A3012 RMK AO2 SLP195 T01830161 $

EXPIRED METARs :
  • 190253Z 00000KT 10SM CLR 21/16 A3011 RMK AO2 SLP192 T02060156 51010 $
  • 190153Z 00000KT 10SM CLR 22/16 A3010 RMK AO2 SLP189 T02220156 $
  • 190053Z 04005KT 10SM CLR 23/14 A3009 RMK AO2 SLP185 T02330144 $
  • 182353Z 04008KT 10SM CLR 26/15 A3008 RMK AO2 SLP181 T02560150 10283 20256 55002 $

TAF KPAH
Valid from the 19 at 00:00 until the 20 at 00:00 UTC


182322Z 1900/1924 03003KT P6SM SKC
FM191600 04006KT P6SM FEW040
KZME FIR / North America



MET'MAP, your aeronautical weather chart ! - Copyright ORBIFLY December 2007 - Disclaimer

ORBIFLY MET'MAP TEAM :

Programming & Development : Alexandra Zaïnal
Original concept : Baudouin d'Aumeries
Technical & hardware support : Manuel Goepfert
Assistance : Marc-Olivier Méhu




SOURCES & CREDITS :

   NOAA       Earth
Advisory